Terminal Aerodrome Forecast
Issued by NWS

Home | Current Version | Previous Version | Text Only | Print | Product List | Glossary On
Versions: 1 2 3 4 5 6 7 8 9 10 11 12 13 14 15 16 17 18 19 20 21 22 23 24 25
000
FTUS45 KGGW 280500
TAFGDV
TAF
KGDV 280523Z 2806/2906 VRB05KT P6SM SCT150
     FM281900 22014KT P6SM VCSH SCT080
     FM282100 27025G36KT P6SM VCTS SCT060CB
     FM290100 29030G45KT 6SM -SHRA OVC050
      AMD LTD TO CLD VIS AND WIND=

USA.gov is the U.S. government's official web portal to all federal, state and local government web resources and services.